Tatiana 1 — 9HA2824 — position and weather

sailwx.info

Track history (hours):
 
Tides and Currents Weather Stations Pressure Air Temp Water Temp Dewpoint Dewpoint Depression Visibility Wind Speed Wind Dir Waves Ship Positions

Tatiana 1

Last reported at 2016-Sep-18 02:12 UTC. Time now 2016-Sep-26 05:26 UTC.
Position N 37°17' E 025°53'.
Warning: this ship's position is 8 days out of date.

Length 47 m; draft 1.7 m.

Type: Ship. MMSI: 256188000.

Date/timePositionNaut miles runAvg speedWind from/ knotsBaromVisibWave heightAir tempDewpointWater temp
2016-Sep-18 02:12N 37°17' E 025°53'811.5
2016-Sep-18 01:30N 37°19' E 025°43'1111.8
2016-Sep-18 00:33N 37°22' E 025°29'8 0.5
2016-Sep-17 10:33N 37°25' E 025°20'1 0.7
2016-Sep-17 09:32N 37°25' E 025°19'0 0.0
2016-Sep-17 08:32N 37°25' E 025°19'0 0.0
2016-Sep-17 07:32N 37°25' E 025°19'0 0.1
2016-Sep-17 05:33N 37°25' E 025°19'10 9.6
2016-Sep-17 04:33N 37°20' E 025°09'454 9.5
2016-Sep-15 04:33N 38°15' E 015°39'  
2016-Sep-09 12:31N 40°43' E 014°19'  
Track history (hours):
 
Tides and Currents Weather Stations Pressure Air Temp Water Temp Dewpoint Dewpoint Depression Visibility Wind Speed Wind Dir Waves Ship Positions

Tatiana 1

Last reported at 2016-Sep-18 02:12 UTC. Time now 2016-Sep-26 05:26 UTC.
Position N 37°17' E 025°53'.
Warning: this ship's position is 8 days out of date.

Length 47 m; draft 1.7 m.

Type: Ship. MMSI: 256188000.

Date/timePositionNaut miles runAvg speedWind from/ knotsBaromVisibWave heightAir tempDewpointWater temp
2016-Sep-18 02:12N 37°17' E 025°53'811.5
2016-Sep-18 01:30N 37°19' E 025°43'1111.8
2016-Sep-18 00:33N 37°22' E 025°29'8 0.5
2016-Sep-17 10:33N 37°25' E 025°20'1 0.7
2016-Sep-17 09:32N 37°25' E 025°19'0 0.0
2016-Sep-17 08:32N 37°25' E 025°19'0 0.0
2016-Sep-17 07:32N 37°25' E 025°19'0 0.1
2016-Sep-17 05:33N 37°25' E 025°19'10 9.6
2016-Sep-17 04:33N 37°20' E 025°09'454 9.5
2016-Sep-15 04:33N 38°15' E 015°39'  
2016-Sep-09 12:31N 40°43' E 014°19'  

Dump ship's entire track history